Time;durP1;ratioP1;P1;durP2;ratioP2;P2;SDS_P1;SDS_P2;PMS_P1;PMS_P2;Temp;Humidity;BMP_temperature;BMP_pressure;BME280_temperature;BME280_humidity;BME280_pressure;Samples;Min_cycle;Max_cycle;Signal;HPM_P1;HPM_P2
2021/05/25 00:00:20;;;;;;;15.50;3.55;;;;;;;;;;4993740;28;20109;-86
2021/05/25 00:02:47;;;;;;;14.00;3.40;;;;;;;;;;4976316;28;20026;-87
2021/05/25 00:05:25;;;;;;;12.95;3.75;;;;;;;;;;4983311;28;20046;-87
2021/05/25 00:07:51;;;;;;;12.63;3.50;;;;;;;;;;4982355;28;20037;-85
2021/05/25 00:10:17;;;;;;;9.57;3.28;;;;;;;;;;4998131;28;20048;-87
2021/05/25 00:12:44;;;;;;;10.40;3.67;;;;;;;;;;4986465;28;20053;-83
2021/05/25 00:15:12;;;;;;;8.48;3.45;;;;;;;;;;4965915;28;20137;-84
2021/05/25 00:17:38;;;;;;;9.90;3.30;;;;;;;;;;4985966;28;20097;-84
2021/05/25 00:20:06;;;;;;;6.47;3.50;;;;;;;;;;4979812;28;20131;-83
2021/05/25 00:22:32;;;;;;;7.43;3.60;;;;;;;;;;4977301;28;20066;-83
2021/05/25 00:24:58;;;;;;;8.10;3.05;;;;;;;;;;4995040;28;20042;-85
2021/05/25 00:27:24;;;;;;;15.02;3.63;;;;;;;;;;4976522;28;20459;-85
2021/05/25 00:29:50;;;;;;;9.57;3.28;;;;;;;;;;4990418;28;20030;-83
2021/05/25 00:32:16;;;;;;;9.40;3.28;;;;;;;;;;4982247;28;20062;-85
2021/05/25 00:34:42;;;;;;;8.98;2.95;;;;;;;;;;4973771;28;20112;-84
2021/05/25 00:37:09;;;;;;;11.38;3.33;;;;;;;;;;4972783;28;20113;-77
2021/05/25 00:39:35;;;;;;;7.25;3.00;;;;;;;;;;4990720;28;20034;-79
2021/05/25 00:42:01;;;;;;;9.02;3.17;;;;;;;;;;4998083;28;20067;-86
2021/05/25 00:44:27;;;;;;;8.15;3.20;;;;;;;;;;4972749;28;20026;-81
2021/05/25 00:46:53;;;;;;;9.00;3.50;;;;;;;;;;4975125;28;20579;-84
2021/05/25 00:49:20;;;;;;;10.00;3.22;;;;;;;;;;4992975;28;20041;-85
2021/05/25 00:51:46;;;;;;;7.13;3.03;;;;;;;;;;4987291;28;20431;-86
2021/05/25 00:54:12;;;;;;;9.70;3.30;;;;;;;;;;4974630;28;20054;-86
2021/05/25 00:56:38;;;;;;;8.25;3.17;;;;;;;;;;4988723;28;20019;-86
2021/05/25 00:59:07;;;;;;;9.55;3.53;;;;;;;;;;4976958;28;20065;-84
2021/05/25 01:01:33;;;;;;;6.28;3.30;;;;;;;;;;4976704;28;20496;-84
2021/05/25 01:04:00;;;;;;;8.77;3.45;;;;;;;;;;4976912;28;20030;-90
2021/05/25 01:06:26;;;;;;;10.35;3.38;;;;;;;;;;4975640;28;20380;-88
2021/05/25 01:08:52;;;;;;;9.35;3.35;;;;;;;;;;4977733;28;20057;-88
2021/05/25 01:11:21;;;;;;;9.15;3.70;;;;;;;;;;4975506;28;20050;-90
2021/05/25 01:13:51;;;;;;;8.52;3.10;;;;;;;;;;4986849;28;20133;-88
2021/05/25 01:16:17;;;;;;;6.68;3.03;;;;;;;;;;4978576;28;20113;-89
2021/05/25 01:18:57;;;;;;;6.85;3.15;;;;;;;;;;4989653;28;20026;-89
2021/05/25 01:21:24;;;;;;;15.02;3.70;;;;;;;;;;4974177;28;20122;-90
2021/05/25 01:23:51;;;;;;;11.02;3.10;;;;;;;;;;4977413;28;20034;-86
2021/05/25 01:26:18;;;;;;;8.60;3.03;;;;;;;;;;4995134;28;20105;-88
2021/05/25 01:28:45;;;;;;;7.80;2.90;;;;;;;;;;4978056;28;20392;-88
2021/05/25 01:31:11;;;;;;;8.18;3.10;;;;;;;;;;4977659;28;20030;-89
2021/05/25 01:33:37;;;;;;;10.18;3.00;;;;;;;;;;4980629;28;20129;-88
2021/05/25 01:36:04;;;;;;;7.68;3.30;;;;;;;;;;4972169;28;20030;-88
2021/05/25 01:38:31;;;;;;;7.82;3.15;;;;;;;;;;4975141;28;20522;-88
2021/05/25 01:40:58;;;;;;;10.02;3.03;;;;;;;;;;4977664;28;20045;-91
2021/05/25 01:43:25;;;;;;;10.48;2.80;;;;;;;;;;4982825;28;20066;-89
2021/05/25 01:45:51;;;;;;;9.68;2.90;;;;;;;;;;4995523;28;20098;-87
2021/05/25 01:48:17;;;;;;;9.38;3.13;;;;;;;;;;4969807;28;20069;-89
2021/05/25 01:50:44;;;;;;;14.13;3.03;;;;;;;;;;4968081;28;20046;-89
2021/05/25 01:53:11;;;;;;;8.77;2.90;;;;;;;;;;4970995;28;20034;-88
2021/05/25 01:55:54;;;;;;;6.53;2.75;;;;;;;;;;4975696;28;20082;-88
2021/05/25 01:58:21;;;;;;;7.35;2.80;;;;;;;;;;4974778;28;20019;-89
2021/05/25 02:00:52;;;;;;;7.50;2.92;;;;;;;;;;4976682;28;20039;-88
2021/05/25 02:03:19;;;;;;;7.07;2.83;;;;;;;;;;4970180;28;20027;-88
2021/05/25 02:05:49;;;;;;;7.50;2.90;;;;;;;;;;4970828;28;20022;-91
2021/05/25 02:08:16;;;;;;;9.27;2.65;;;;;;;;;;4972152;28;20042;-89
2021/05/25 02:10:44;;;;;;;6.45;2.85;;;;;;;;;;4972565;28;20023;-88
2021/05/25 02:13:15;;;;;;;7.70;2.78;;;;;;;;;;4970042;28;20540;-85
2021/05/25 02:15:42;;;;;;;9.70;3.10;;;;;;;;;;4970107;28;20162;-89
2021/05/25 02:18:12;;;;;;;8.93;3.20;;;;;;;;;;4963125;28;20079;-91
2021/05/25 02:20:39;;;;;;;7.15;3.22;;;;;;;;;;4971656;28;20026;-92
2021/05/25 02:23:06;;;;;;;5.55;3.10;;;;;;;;;;4957438;28;20640;-89
2021/05/25 02:25:33;;;;;;;7.13;3.13;;;;;;;;;;4971820;28;20062;-85
2021/05/25 02:28:01;;;;;;;9.15;3.03;;;;;;;;;;4972769;28;20187;-90
2021/05/25 02:30:28;;;;;;;17.48;3.60;;;;;;;;;;4970302;28;20023;-89
2021/05/25 02:32:55;;;;;;;5.72;2.75;;;;;;;;;;4977657;28;20023;-89
2021/05/25 02:35:21;;;;;;;8.35;2.90;;;;;;;;;;4966503;28;20047;-88
2021/05/25 02:37:47;;;;;;;10.73;2.70;;;;;;;;;;4964448;28;20034;-92
2021/05/25 02:40:14;;;;;;;9.35;2.80;;;;;;;;;;4972309;28;20057;-91
2021/05/25 02:42:40;;;;;;;7.72;2.80;;;;;;;;;;4975843;28;20038;-90
2021/05/25 02:48:13;;;;;;;7.65;2.65;;;;;;;;;;4971307;28;20090;-91
2021/05/25 02:51:22;;;;;;;5.55;2.70;;;;;;;;;;4973723;28;20034;-89
2021/05/25 02:53:41;;;;;;;10.70;3.05;;;;;;;;;;4979404;28;20046;-90
2021/05/25 02:56:14;;;;;;;11.38;3.13;;;;;;;;;;4989319;28;20034;-88
2021/05/25 02:58:40;;;;;;;7.28;2.80;;;;;;;;;;4973732;28;20022;-88
2021/05/25 03:01:07;;;;;;;7.70;2.95;;;;;;;;;;4975807;28;20040;-87
2021/05/25 03:03:33;;;;;;;7.40;2.60;;;;;;;;;;4988278;28;20045;-88
2021/05/25 03:06:08;;;;;;;26.95;3.03;;;;;;;;;;4977148;28;20089;-87
2021/05/25 03:08:35;;;;;;;4.55;2.70;;;;;;;;;;5002802;28;20076;-83
2021/05/25 03:11:01;;;;;;;11.73;2.83;;;;;;;;;;4978566;28;20033;-87
2021/05/25 03:13:27;;;;;;;6.15;2.70;;;;;;;;;;4975641;28;20434;-87
2021/05/25 03:15:56;;;;;;;7.43;2.80;;;;;;;;;;4986290;28;20037;-89
2021/05/25 03:18:28;;;;;;;7.80;3.05;;;;;;;;;;4973816;28;20435;-88
2021/05/25 03:20:54;;;;;;;6.43;2.90;;;;;;;;;;4975824;28;20054;-88
2021/05/25 03:23:20;;;;;;;9.25;3.28;;;;;;;;;;4977268;28;20059;-87
2021/05/25 03:25:47;;;;;;;6.82;3.10;;;;;;;;;;4971446;28;20022;-88
2021/05/25 03:28:13;;;;;;;5.97;2.67;;;;;;;;;;4991184;28;20037;-82
2021/05/25 03:30:40;;;;;;;7.65;2.97;;;;;;;;;;4969258;28;20049;-87
2021/05/25 03:33:07;;;;;;;13.98;2.95;;;;;;;;;;4979128;28;20026;-87
2021/05/25 03:35:33;;;;;;;6.93;2.78;;;;;;;;;;4975975;28;20042;-84
2021/05/25 03:37:59;;;;;;;5.10;2.90;;;;;;;;;;4996098;28;20026;-86
2021/05/25 03:40:26;;;;;;;8.43;3.38;;;;;;;;;;4969682;28;20236;-86
2021/05/25 03:42:52;;;;;;;8.05;2.80;;;;;;;;;;4973175;28;20027;-80
2021/05/25 03:45:19;;;;;;;7.40;2.78;;;;;;;;;;4981602;28;20049;-85
2021/05/25 03:47:45;;;;;;;10.30;3.13;;;;;;;;;;4964824;28;20057;-87
2021/05/25 03:50:14;;;;;;;5.82;3.00;;;;;;;;;;4979491;28;20030;-87
2021/05/25 03:52:42;;;;;;;5.75;3.10;;;;;;;;;;4972176;28;20034;-88
2021/05/25 03:55:48;;;;;;;8.40;3.03;;;;;;;;;;4987366;28;20042;-86
2021/05/25 04:00:59;;;;;;;9.57;3.20;;;;;;;;;;4978629;28;20400;-84
2021/05/25 04:03:25;;;;;;;7.15;2.95;;;;;;;;;;4978716;28;20030;-87
2021/05/25 04:05:52;;;;;;;7.05;3.05;;;;;;;;;;4990375;28;20094;-87
2021/05/25 04:08:18;;;;;;;7.63;3.17;;;;;;;;;;4993451;28;20034;-84
2021/05/25 04:10:44;;;;;;;5.70;3.47;;;;;;;;;;4971056;28;20039;-87
2021/05/25 04:13:11;;;;;;;9.27;3.30;;;;;;;;;;4968948;28;20038;-87
2021/05/25 04:15:38;;;;;;;10.70;3.60;;;;;;;;;;4979219;28;20034;-88
2021/05/25 04:18:05;;;;;;;10.15;3.33;;;;;;;;;;4973943;28;20029;-88
2021/05/25 04:20:31;;;;;;;13.32;3.28;;;;;;;;;;4973985;28;20038;-82
2021/05/25 04:22:57;;;;;;;8.18;2.90;;;;;;;;;;4970464;28;20057;-89
2021/05/25 04:25:23;;;;;;;11.30;4.15;;;;;;;;;;4977684;28;20117;-84
2021/05/25 04:27:49;;;;;;;8.27;3.47;;;;;;;;;;4971154;28;20030;-86
2021/05/25 04:30:17;;;;;;;8.95;3.38;;;;;;;;;;4973812;28;20041;-87
2021/05/25 04:32:43;;;;;;;7.47;3.00;;;;;;;;;;4974495;28;20066;-88
2021/05/25 04:35:10;;;;;;;10.68;3.50;;;;;;;;;;4980912;28;20030;-86
2021/05/25 04:37:36;;;;;;;7.63;3.30;;;;;;;;;;4988479;28;20085;-89
2021/05/25 04:40:03;;;;;;;8.25;3.63;;;;;;;;;;4984958;28;20069;-89
2021/05/25 04:42:29;;;;;;;6.68;3.33;;;;;;;;;;4980351;28;20033;-89
2021/05/25 04:44:55;;;;;;;8.43;3.40;;;;;;;;;;4970613;28;20113;-89
2021/05/25 04:47:21;;;;;;;12.38;3.45;;;;;;;;;;4972847;28;20034;-84
2021/05/25 04:49:47;;;;;;;10.68;3.50;;;;;;;;;;4968498;28;20113;-88
2021/05/25 04:52:13;;;;;;;8.00;3.40;;;;;;;;;;4980231;28;20045;-89
2021/05/25 04:54:40;;;;;;;11.60;4.07;;;;;;;;;;4974946;28;20051;-89
2021/05/25 04:57:06;;;;;;;10.88;3.25;;;;;;;;;;4974350;28;20026;-82
2021/05/25 04:59:32;;;;;;;13.05;3.70;;;;;;;;;;4992323;28;20058;-82
2021/05/25 05:04:45;;;;;;;10.57;3.10;;;;;;;;;;4999293;28;20068;-83
2021/05/25 05:07:14;;;;;;;9.48;3.78;;;;;;;;;;4978974;28;20125;-79
2021/05/25 05:09:40;;;;;;;14.88;4.50;;;;;;;;;;4976731;28;20026;-76
2021/05/25 05:12:06;;;;;;;8.75;3.15;;;;;;;;;;4977628;28;20026;-82
2021/05/25 05:14:34;;;;;;;11.15;3.78;;;;;;;;;;4992840;28;20369;-76
2021/05/25 05:17:00;;;;;;;19.25;4.40;;;;;;;;;;4988432;28;20054;-80
2021/05/25 05:19:27;;;;;;;10.93;3.90;;;;;;;;;;4991947;28;20113;-71
2021/05/25 05:21:55;;;;;;;13.32;5.00;;;;;;;;;;4993644;28;20022;-69
2021/05/25 05:24:36;;;;;;;11.68;4.97;;;;;;;;;;4989469;28;20406;-81
2021/05/25 05:27:02;;;;;;;9.73;5.97;;;;;;;;;;4970331;28;20065;-75
2021/05/25 05:29:30;;;;;;;13.68;5.70;;;;;;;;;;4988113;28;20061;-78
2021/05/25 05:31:57;;;;;;;11.15;5.80;;;;;;;;;;4994894;28;20019;-74
2021/05/25 05:34:23;;;;;;;9.82;5.85;;;;;;;;;;4993488;28;20093;-73
2021/05/25 05:36:49;;;;;;;12.35;6.15;;;;;;;;;;4996961;28;20018;-78
2021/05/25 05:39:15;;;;;;;10.82;5.80;;;;;;;;;;4994496;28;20034;-70
2021/05/25 05:41:41;;;;;;;16.55;6.55;;;;;;;;;;4992858;28;20037;-77
2021/05/25 05:44:07;;;;;;;11.38;5.88;;;;;;;;;;4971836;28;20030;-76
2021/05/25 05:46:33;;;;;;;7.47;5.50;;;;;;;;;;4996592;28;20026;-77
2021/05/25 05:48:59;;;;;;;8.40;5.78;;;;;;;;;;4995601;28;20105;-71
2021/05/25 05:51:25;;;;;;;8.93;5.43;;;;;;;;;;4996110;28;20030;-74
2021/05/25 05:53:52;;;;;;;12.00;6.78;;;;;;;;;;4994136;28;20125;-72
2021/05/25 05:56:20;;;;;;;9.00;6.03;;;;;;;;;;4992543;28;20062;-77
2021/05/25 05:58:47;;;;;;;11.05;6.13;;;;;;;;;;4988703;28;20026;-76
2021/05/25 06:01:15;;;;;;;13.10;5.95;;;;;;;;;;4990799;28;20085;-71
2021/05/25 06:03:41;;;;;;;15.48;6.53;;;;;;;;;;4974530;28;20484;-72
2021/05/25 06:06:07;;;;;;;10.52;6.00;;;;;;;;;;4992477;28;20027;-71
2021/05/25 06:08:33;;;;;;;14.70;6.15;;;;;;;;;;4986780;28;20029;-73
2021/05/25 06:10:59;;;;;;;10.00;6.20;;;;;;;;;;4991731;28;20030;-77
2021/05/25 06:13:26;;;;;;;18.42;6.68;;;;;;;;;;4974079;28;20037;-76
2021/05/25 06:15:56;;;;;;;17.58;7.28;;;;;;;;;;4991671;28;20034;-72
2021/05/25 06:18:30;;;;;;;12.45;6.22;;;;;;;;;;4993491;28;20069;-77
2021/05/25 06:20:56;;;;;;;11.35;6.95;;;;;;;;;;4994177;28;20108;-77
2021/05/25 06:23:22;;;;;;;12.80;6.65;;;;;;;;;;4992327;28;20030;-76
2021/05/25 06:25:54;;;;;;;14.93;6.32;;;;;;;;;;4993943;28;20042;-77
2021/05/25 06:28:20;;;;;;;11.13;5.88;;;;;;;;;;4994719;28;20030;-74
2021/05/25 06:30:46;;;;;;;9.63;5.88;;;;;;;;;;4967922;28;20026;-72
2021/05/25 06:33:21;;;;;;;12.60;6.20;;;;;;;;;;4992101;28;20416;-79
2021/05/25 06:35:49;;;;;;;8.75;6.00;;;;;;;;;;4992813;28;20046;-80
2021/05/25 06:38:15;;;;;;;9.40;5.95;;;;;;;;;;4991646;28;20567;-76
2021/05/25 06:40:42;;;;;;;11.63;6.25;;;;;;;;;;4970618;28;20121;-77
2021/05/25 06:43:30;;;;;;;20.52;7.43;;;;;;;;;;4993784;28;20492;-72
2021/05/25 06:45:57;;;;;;;14.25;6.70;;;;;;;;;;4974899;28;20026;-74
2021/05/25 06:48:23;;;;;;;9.45;6.32;;;;;;;;;;4990124;28;20027;-70
2021/05/25 06:50:52;;;;;;;10.15;6.50;;;;;;;;;;4989550;28;20125;-72
2021/05/25 06:53:18;;;;;;;12.45;7.05;;;;;;;;;;4973697;28;20026;-77
2021/05/25 06:55:55;;;;;;;10.77;6.50;;;;;;;;;;4987449;28;20033;-82
2021/05/25 06:58:21;;;;;;;12.73;6.38;;;;;;;;;;4988127;28;20065;-79
2021/05/25 07:00:47;;;;;;;10.20;6.07;;;;;;;;;;4990266;28;20030;-76
2021/05/25 07:03:13;;;;;;;10.98;6.88;;;;;;;;;;4989646;28;20034;-77
2021/05/25 07:05:39;;;;;;;11.88;6.63;;;;;;;;;;4997207;28;20034;-74
2021/05/25 07:08:05;;;;;;;9.57;5.85;;;;;;;;;;4994177;28;20511;-77
2021/05/25 07:10:31;;;;;;;14.40;6.68;;;;;;;;;;4973909;28;20093;-74
2021/05/25 07:12:58;;;;;;;17.95;6.28;;;;;;;;;;4991501;28;20586;-78
2021/05/25 07:15:24;;;;;;;10.80;6.20;;;;;;;;;;4978427;28;20523;-73
2021/05/25 07:17:57;;;;;;;11.10;5.82;;;;;;;;;;4992354;28;20030;-72
2021/05/25 07:20:24;;;;;;;9.15;5.68;;;;;;;;;;4990979;28;20113;-74
2021/05/25 07:22:53;;;;;;;13.55;6.30;;;;;;;;;;4972267;28;20041;-74
2021/05/25 07:25:20;;;;;;;11.02;5.95;;;;;;;;;;4988339;28;20018;-72
2021/05/25 07:27:46;;;;;;;13.95;5.93;;;;;;;;;;4979686;28;20100;-73
2021/05/25 07:30:12;;;;;;;14.57;6.07;;;;;;;;;;4989880;28;20042;-73
2021/05/25 07:32:38;;;;;;;10.27;5.93;;;;;;;;;;4991775;28;20023;-74
2021/05/25 07:35:05;;;;;;;8.98;5.63;;;;;;;;;;4995380;28;20066;-73
2021/05/25 07:37:32;;;;;;;14.38;6.30;;;;;;;;;;4977376;28;20034;-75
2021/05/25 07:39:58;;;;;;;12.75;6.00;;;;;;;;;;4992170;28;20037;-76
2021/05/25 07:42:25;;;;;;;11.38;5.70;;;;;;;;;;4995117;28;20061;-77
2021/05/25 07:44:51;;;;;;;13.65;6.03;;;;;;;;;;4990383;28;20520;-74
2021/05/25 07:47:18;;;;;;;10.18;5.28;;;;;;;;;;4985621;28;20038;-74
2021/05/25 07:49:44;;;;;;;10.57;6.22;;;;;;;;;;4988743;28;20473;-70
2021/05/25 07:52:11;;;;;;;14.13;7.25;;;;;;;;;;4998186;28;20376;-71
2021/05/25 07:54:37;;;;;;;10.38;5.78;;;;;;;;;;4990771;28;20047;-79
2021/05/25 07:57:03;;;;;;;9.82;5.85;;;;;;;;;;4991402;28;20473;-77
2021/05/25 07:59:30;;;;;;;11.10;6.57;;;;;;;;;;4991964;28;20057;-74
2021/05/25 08:01:56;;;;;;;16.58;6.43;;;;;;;;;;4994942;28;20108;-72
2021/05/25 08:04:23;;;;;;;13.98;6.85;;;;;;;;;;4998130;28;20077;-72
2021/05/25 08:06:49;;;;;;;18.35;7.72;;;;;;;;;;4995865;28;20049;-70
2021/05/25 08:15:03;;;;;;;14.93;6.90;;;;;;;;;;4903963;29;20517;-71
2021/05/25 08:23:24;;;;;;;14.88;6.85;;;;;;;;;;4882427;29;20029;-74
2021/05/25 08:25:50;;;;;;;12.43;7.15;;;;;;;;;;4878036;29;20117;-75
2021/05/25 08:28:17;;;;;;;13.38;6.68;;;;;;;;;;4884040;29;20066;-75
2021/05/25 08:30:44;;;;;;;17.05;7.40;;;;;;;;;;4881000;29;20044;-74
2021/05/25 08:33:11;;;;;;;14.18;7.88;;;;;;;;;;4879562;29;20033;-76
2021/05/25 08:35:37;;;;;;;13.57;7.18;;;;;;;;;;4880916;29;20128;-73
2021/05/25 08:38:07;;;;;;;13.05;6.75;;;;;;;;;;4879407;29;20037;-73
2021/05/25 08:40:34;;;;;;;15.48;5.35;;;;;;;;;;4880067;29;20056;-74
2021/05/25 08:43:01;;;;;;;11.13;6.03;;;;;;;;;;4880323;29;20045;-74
2021/05/25 08:45:27;;;;;;;12.70;6.03;;;;;;;;;;4882356;29;20443;-79
2021/05/25 08:47:54;;;;;;;13.70;6.30;;;;;;;;;;4868209;29;20033;-81
2021/05/25 08:50:29;;;;;;;16.15;6.10;;;;;;;;;;4882101;29;20041;-72
2021/05/25 08:53:01;;;;;;;10.48;6.13;;;;;;;;;;4913099;29;20036;-74
2021/05/25 08:55:37;;;;;;;12.00;5.28;;;;;;;;;;4919831;29;20075;-73
2021/05/25 08:58:05;;;;;;;22.50;6.50;;;;;;;;;;4917331;28;20028;-72
2021/05/25 09:00:39;;;;;;;10.75;5.50;;;;;;;;;;4992576;28;20030;-71
2021/05/25 09:03:05;;;;;;;11.80;5.30;;;;;;;;;;4980068;28;20031;-71
2021/05/25 09:05:34;;;;;;;8.20;5.68;;;;;;;;;;4979127;28;20026;-74
2021/05/25 09:08:00;;;;;;;10.48;5.63;;;;;;;;;;4979025;28;20113;-71
2021/05/25 09:10:34;;;;;;;10.85;5.60;;;;;;;;;;4996703;28;20045;-74
2021/05/25 09:13:00;;;;;;;8.82;5.30;;;;;;;;;;4996417;28;20046;-77
2021/05/25 09:15:37;;;;;;;10.48;4.93;;;;;;;;;;4977739;28;20100;-75
2021/05/25 09:18:04;;;;;;;11.18;5.72;;;;;;;;;;4993285;28;20037;-75
2021/05/25 09:20:50;;;;;;;9.00;4.82;;;;;;;;;;4991853;28;20116;-75
2021/05/25 09:23:19;;;;;;;12.23;5.43;;;;;;;;;;4972026;28;20089;-74
2021/05/25 09:25:53;;;;;;;11.98;5.45;;;;;;;;;;4996501;28;20026;-73
2021/05/25 09:28:21;;;;;;;13.25;5.00;;;;;;;;;;4992713;28;20421;-72
2021/05/25 09:30:48;;;;;;;10.85;4.75;;;;;;;;;;4993818;28;20022;-78
2021/05/25 09:33:14;;;;;;;10.80;4.72;;;;;;;;;;4993698;28;20554;-75
2021/05/25 09:35:41;;;;;;;10.43;5.82;;;;;;;;;;4973559;28;20061;-80
2021/05/25 09:38:09;;;;;;;11.88;4.35;;;;;;;;;;4976193;28;20030;-75
2021/05/25 09:40:35;;;;;;;13.32;4.90;;;;;;;;;;4994122;28;20027;-76
2021/05/25 09:43:14;;;;;;;14.18;4.60;;;;;;;;;;4996258;28;20045;-81
2021/05/25 09:45:55;;;;;;;10.23;4.18;;;;;;;;;;4998897;28;20104;-75
2021/05/25 09:48:22;;;;;;;10.48;4.40;;;;;;;;;;4991670;28;20042;-74
2021/05/25 09:50:49;;;;;;;9.57;3.85;;;;;;;;;;4968565;28;20026;-73
2021/05/25 09:53:25;;;;;;;14.82;4.10;;;;;;;;;;4992203;28;20018;-73
2021/05/25 09:55:51;;;;;;;14.48;4.30;;;;;;;;;;4997509;28;20059;-73
2021/05/25 09:58:17;;;;;;;8.73;3.60;;;;;;;;;;4997160;28;20036;-75
2021/05/25 10:00:46;;;;;;;11.27;4.00;;;;;;;;;;4994283;28;20030;-76
2021/05/25 10:03:20;;;;;;;9.75;4.10;;;;;;;;;;4998065;28;20499;-75
2021/05/25 10:05:50;;;;;;;10.95;3.60;;;;;;;;;;4998593;28;20030;-80
2021/05/25 10:08:17;;;;;;;11.85;3.80;;;;;;;;;;4993785;28;20030;-77
2021/05/25 10:10:44;;;;;;;15.00;4.18;;;;;;;;;;4988286;28;20026;-75
2021/05/25 10:13:11;;;;;;;15.77;3.28;;;;;;;;;;4993359;28;20023;-76
2021/05/25 10:15:38;;;;;;;13.65;3.55;;;;;;;;;;4993921;28;20030;-79
2021/05/25 10:20:31;;;;;;;11.90;4.07;;;;;;;;;;4995122;28;20738;-76
2021/05/25 10:22:58;;;;;;;12.48;3.53;;;;;;;;;;4991986;28;20019;-74
2021/05/25 10:25:26;;;;;;;7.00;3.22;;;;;;;;;;4994573;28;20030;-77
2021/05/25 10:27:52;;;;;;;11.13;3.50;;;;;;;;;;4989770;28;20026;-78
2021/05/25 10:30:24;;;;;;;12.27;4.00;;;;;;;;;;4994727;28;20034;-79
2021/05/25 10:32:52;;;;;;;11.95;3.85;;;;;;;;;;4990556;28;20026;-80
2021/05/25 10:35:20;;;;;;;8.65;3.60;;;;;;;;;;4993852;28;20073;-80
2021/05/25 10:38:15;;;;;;;9.85;3.40;;;;;;;;;;4983377;28;20034;-77
2021/05/25 10:40:45;;;;;;;9.68;3.45;;;;;;;;;;4891581;29;20107;-81
2021/05/25 10:43:29;;;;;;;11.70;3.50;;;;;;;;;;4893312;29;20529;-78
2021/05/25 10:46:14;;;;;;;11.10;3.65;;;;;;;;;;4894320;29;20550;-80
2021/05/25 10:48:51;;;;;;;13.88;3.60;;;;;;;;;;4893472;29;20058;-79
2021/05/25 10:51:17;;;;;;;9.05;3.35;;;;;;;;;;4879241;29;20051;-85
2021/05/25 10:53:43;;;;;;;9.32;3.63;;;;;;;;;;4891825;29;20115;-79
2021/05/25 10:56:28;;;;;;;15.48;5.07;;;;;;;;;;4893636;29;20103;-77
2021/05/25 10:58:59;;;;;;;9.88;3.42;;;;;;;;;;4893250;29;20595;-77
2021/05/25 11:01:29;;;;;;;12.73;3.70;;;;;;;;;;4875680;29;20047;-71
2021/05/25 11:04:11;;;;;;;11.20;3.75;;;;;;;;;;4893511;29;20601;-74
2021/05/25 11:06:38;;;;;;;12.30;3.60;;;;;;;;;;4893370;29;20037;-72
2021/05/25 11:09:22;;;;;;;10.90;3.38;;;;;;;;;;4892270;29;20064;-79
2021/05/25 11:12:08;;;;;;;12.20;3.83;;;;;;;;;;4887930;29;20047;-73
2021/05/25 11:14:34;;;;;;;14.30;4.07;;;;;;;;;;4890383;29;20132;-72
2021/05/25 11:17:23;;;;;;;8.05;3.47;;;;;;;;;;4934623;28;20077;-74
2021/05/25 11:20:10;;;;;;;9.88;3.78;;;;;;;;;;4985210;28;20030;-72
2021/05/25 11:22:37;;;;;;;8.65;3.40;;;;;;;;;;4965481;28;20395;-80
2021/05/25 11:25:05;;;;;;;13.55;3.70;;;;;;;;;;4988450;28;20427;-71
2021/05/25 11:27:43;;;;;;;12.43;3.83;;;;;;;;;;4993766;28;20061;-78
2021/05/25 11:30:14;;;;;;;11.98;3.55;;;;;;;;;;4975728;28;20030;-75
2021/05/25 11:32:47;;;;;;;10.45;3.63;;;;;;;;;;4993155;28;20073;-72
2021/05/25 11:35:15;;;;;;;9.63;3.20;;;;;;;;;;4967987;28;20069;-76
2021/05/25 11:37:43;;;;;;;11.13;3.33;;;;;;;;;;4988319;28;20476;-74
2021/05/25 11:40:10;;;;;;;7.38;3.40;;;;;;;;;;4992992;28;20026;-77
2021/05/25 11:42:36;;;;;;;6.15;3.45;;;;;;;;;;4994426;28;20106;-82
2021/05/25 11:45:06;;;;;;;11.20;3.75;;;;;;;;;;5002320;28;20034;-84
2021/05/25 11:47:33;;;;;;;12.70;3.70;;;;;;;;;;4977295;28;20094;-76
2021/05/25 11:50:00;;;;;;;9.35;3.55;;;;;;;;;;4993634;28;20026;-74
2021/05/25 11:52:26;;;;;;;15.48;7.30;;;;;;;;;;5000816;28;20034;-76
2021/05/25 11:54:54;;;;;;;26.63;6.40;;;;;;;;;;4994045;28;20215;-75
2021/05/25 11:57:27;;;;;;;10.90;4.07;;;;;;;;;;4987979;28;20093;-71
2021/05/25 11:59:53;;;;;;;;;;;;;;;;;;4992303;28;20072;-77
2021/05/25 12:02:29;;;;;;;11.55;3.67;;;;;;;;;;4986401;28;19944;-78
2021/05/25 12:05:04;;;;;;;11.32;3.95;;;;;;;;;;4993425;28;20110;-73
2021/05/25 12:07:31;;;;;;;10.00;3.78;;;;;;;;;;4989003;28;20105;-81
2021/05/25 12:09:59;;;;;;;11.45;3.78;;;;;;;;;;4992224;28;20383;-79
2021/05/25 12:12:28;;;;;;;13.55;3.92;;;;;;;;;;4993697;28;20384;-81
2021/05/25 12:14:55;;;;;;;11.05;3.50;;;;;;;;;;4985289;28;20661;-76
2021/05/25 12:17:22;;;;;;;10.65;3.55;;;;;;;;;;4994056;28;20041;-79
2021/05/25 12:20:20;;;;;;;10.77;3.58;;;;;;;;;;5108742;23;20339;-78
2021/05/25 12:22:48;;;;;;;7.47;3.28;;;;;;;;;;4965755;28;20500;-81
2021/05/25 12:25:26;;;;;;;10.57;3.40;;;;;;;;;;4972887;28;20030;-83
2021/05/25 12:28:04;;;;;;;7.35;3.22;;;;;;;;;;4968525;28;20026;-82
2021/05/25 12:30:30;;;;;;;9.98;3.55;;;;;;;;;;4972088;28;20039;-81
2021/05/25 12:32:56;;;;;;;20.02;3.75;;;;;;;;;;4965779;28;20492;-78
2021/05/25 12:35:24;;;;;;;9.75;3.45;;;;;;;;;;4968241;28;20122;-81
2021/05/25 12:38:07;;;;;;;13.02;3.60;;;;;;;;;;4969010;28;20023;-74
2021/05/25 12:40:33;;;;;;;9.88;3.60;;;;;;;;;;4969123;28;20529;-85
2021/05/25 12:42:59;;;;;;;11.40;3.53;;;;;;;;;;4971177;28;20033;-84
2021/05/25 12:45:30;;;;;;;8.77;3.70;;;;;;;;;;4955537;28;20089;-74
2021/05/25 12:48:00;;;;;;;8.10;3.58;;;;;;;;;;4972293;28;20027;-78
2021/05/25 12:50:37;;;;;;;8.70;3.60;;;;;;;;;;4971471;28;20029;-78
2021/05/25 12:53:03;;;;;;;12.52;3.80;;;;;;;;;;4969972;28;20031;-80
2021/05/25 12:55:30;;;;;;;8.85;3.58;;;;;;;;;;4975002;28;20046;-80
2021/05/25 12:57:56;;;;;;;9.85;3.47;;;;;;;;;;4974421;28;20030;-80
2021/05/25 13:00:43;;;;;;;12.32;3.50;;;;;;;;;;4965732;28;20027;-83
2021/05/25 13:03:26;;;;;;;12.30;3.50;;;;;;;;;;4965823;28;20047;-79
2021/05/25 13:05:53;;;;;;;;;;;;;;;;;;4976512;28;20030;-82
2021/05/25 13:08:32;;;;;;;9.40;3.15;;;;;;;;;;4974369;28;19949;-74
2021/05/25 13:11:06;;;;;;;9.05;3.53;;;;;;;;;;4971860;28;20524;-74
2021/05/25 13:13:37;;;;;;;11.02;3.83;;;;;;;;;;4959760;28;20520;-73
2021/05/25 13:16:03;;;;;;;13.95;3.58;;;;;;;;;;4976171;28;20042;-82
2021/05/25 13:18:39;;;;;;;10.70;3.45;;;;;;;;;;4972719;28;20030;-82
2021/05/25 13:21:08;;;;;;;7.18;3.22;;;;;;;;;;4964501;28;20122;-85
2021/05/25 13:23:34;;;;;;;13.98;3.80;;;;;;;;;;4962480;28;20032;-84
2021/05/25 13:26:25;;;;;;;10.27;3.50;;;;;;;;;;4965561;28;20516;-75
2021/05/25 13:28:53;;;;;;;8.43;3.63;;;;;;;;;;4965234;28;20043;-79
2021/05/25 13:31:23;;;;;;;15.80;3.58;;;;;;;;;;4963014;28;20093;-72
2021/05/25 13:33:50;;;;;;;13.60;3.97;;;;;;;;;;4962323;28;20089;-80
2021/05/25 13:36:17;;;;;;;9.00;3.38;;;;;;;;;;4969686;28;20405;-78
2021/05/25 13:38:43;;;;;;;10.15;3.30;;;;;;;;;;4965853;28;20377;-83
2021/05/25 13:41:09;;;;;;;11.48;3.50;;;;;;;;;;4961828;28;20450;-78
2021/05/25 13:43:35;;;;;;;23.13;4.43;;;;;;;;;;4970416;28;20105;-82
2021/05/25 13:46:02;;;;;;;9.52;3.60;;;;;;;;;;4972395;28;20097;-79
2021/05/25 13:48:28;;;;;;;11.95;3.80;;;;;;;;;;4960710;28;20485;-81
2021/05/25 13:50:55;;;;;;;9.38;3.70;;;;;;;;;;4963193;28;20023;-85
2021/05/25 13:53:21;;;;;;;13.73;3.40;;;;;;;;;;4965716;28;20196;-77
2021/05/25 13:55:47;;;;;;;11.45;3.50;;;;;;;;;;4963383;28;20074;-79
2021/05/25 13:58:17;;;;;;;9.52;3.20;;;;;;;;;;4961265;28;20024;-85
2021/05/25 14:03:27;;;;;;;7.82;3.60;;;;;;;;;;4964639;28;20126;-84
2021/05/25 14:05:54;;;;;;;8.65;3.22;;;;;;;;;;4973791;28;20078;-81
2021/05/25 14:08:20;;;;;;;7.85;3.38;;;;;;;;;;4962208;28;20492;-80
2021/05/25 14:10:46;;;;;;;9.07;3.67;;;;;;;;;;4962988;28;20031;-80
2021/05/25 14:13:12;;;;;;;9.73;3.70;;;;;;;;;;4970194;28;20080;-86
2021/05/25 14:15:39;;;;;;;10.23;3.72;;;;;;;;;;4959673;28;20041;-89
2021/05/25 14:18:08;;;;;;;11.02;4.38;;;;;;;;;;4958694;28;20389;-84
2021/05/25 14:20:34;;;;;;;8.88;3.80;;;;;;;;;;4970786;28;20038;-83
2021/05/25 14:23:01;;;;;;;11.13;3.65;;;;;;;;;;4971556;28;20063;-88
2021/05/25 14:25:28;;;;;;;11.80;3.80;;;;;;;;;;4964878;28;20030;-88
2021/05/25 14:27:54;;;;;;;18.27;4.10;;;;;;;;;;4961770;28;20653;-83
2021/05/25 14:30:20;;;;;;;12.57;4.38;;;;;;;;;;4962395;28;20117;-90
2021/05/25 14:32:47;;;;;;;15.95;4.07;;;;;;;;;;4970743;28;20033;-81
2021/05/25 14:35:13;;;;;;;11.02;3.78;;;;;;;;;;4963883;28;20031;-75
2021/05/25 14:37:39;;;;;;;13.30;4.18;;;;;;;;;;4960576;28;20050;-90
2021/05/25 14:40:06;;;;;;;14.32;4.20;;;;;;;;;;4965536;28;20034;-82
2021/05/25 14:42:32;;;;;;;12.32;4.40;;;;;;;;;;4967393;28;20389;-74
2021/05/25 14:44:58;;;;;;;11.18;4.05;;;;;;;;;;4967710;28;20154;-87
2021/05/25 14:47:24;;;;;;;22.90;4.75;;;;;;;;;;4966064;28;20485;-83
2021/05/25 14:49:51;;;;;;;8.88;4.05;;;;;;;;;;4968806;28;20539;-84
2021/05/25 14:52:17;;;;;;;11.10;3.95;;;;;;;;;;4969328;28;20495;-82
2021/05/25 14:54:44;;;;;;;43.85;5.80;;;;;;;;;;4947685;28;20424;-77
2021/05/25 14:57:11;;;;;;;37.75;6.28;;;;;;;;;;4964024;28;20041;-85
2021/05/25 14:59:40;;;;;;;11.93;4.70;;;;;;;;;;4962658;28;20026;-76
2021/05/25 15:02:12;;;;;;;15.35;4.20;;;;;;;;;;4969890;28;20118;-85
2021/05/25 15:07:19;;;;;;;11.50;4.15;;;;;;;;;;4966117;28;20025;-88
2021/05/25 15:09:53;;;;;;;9.65;4.40;;;;;;;;;;4966383;28;20019;-87
2021/05/25 15:12:21;;;;;;;18.83;4.80;;;;;;;;;;4963859;28;20520;-86